sensor_id;sensor_type;location;lat;lon;timestamp;P1;durP1;ratioP1;P2;durP2;ratioP2
12469;SDS011;36499;46.484;13.832;2023-09-08T00:00:30;17.90;;;10.33;;
12469;SDS011;36499;46.484;13.832;2023-09-08T00:02:57;8.43;;;6.50;;
12469;SDS011;36499;46.484;13.832;2023-09-08T00:05:24;5.67;;;5.03;;
12469;SDS011;36499;46.484;13.832;2023-09-08T00:07:51;6.80;;;5.20;;
12469;SDS011;36499;46.484;13.832;2023-09-08T00:10:19;5.33;;;4.63;;
12469;SDS011;36499;46.484;13.832;2023-09-08T00:12:46;5.77;;;5.17;;
12469;SDS011;36499;46.484;13.832;2023-09-08T00:15:13;5.60;;;4.53;;
12469;SDS011;36499;46.484;13.832;2023-09-08T00:17:41;5.40;;;4.90;;
12469;SDS011;36499;46.484;13.832;2023-09-08T00:20:08;5.30;;;4.80;;
12469;SDS011;36499;46.484;13.832;2023-09-08T00:22:36;5.97;;;5.10;;
12469;SDS011;36499;46.484;13.832;2023-09-08T00:25:04;5.23;;;4.60;;
12469;SDS011;36499;46.484;13.832;2023-09-08T00:27:34;6.33;;;4.77;;
12469;SDS011;36499;46.484;13.832;2023-09-08T00:30:01;5.20;;;4.70;;
12469;SDS011;36499;46.484;13.832;2023-09-08T00:32:28;6.33;;;5.67;;
12469;SDS011;36499;46.484;13.832;2023-09-08T00:34:55;6.90;;;4.50;;
12469;SDS011;36499;46.484;13.832;2023-09-08T00:37:22;7.93;;;5.10;;
12469;SDS011;36499;46.484;13.832;2023-09-08T00:39:50;6.00;;;5.27;;
12469;SDS011;36499;46.484;13.832;2023-09-08T00:42:18;5.57;;;4.90;;
12469;SDS011;36499;46.484;13.832;2023-09-08T00:44:46;7.27;;;5.40;;
12469;SDS011;36499;46.484;13.832;2023-09-08T00:47:14;6.67;;;5.27;;
12469;SDS011;36499;46.484;13.832;2023-09-08T00:49:41;6.47;;;5.27;;
12469;SDS011;36499;46.484;13.832;2023-09-08T00:52:08;6.53;;;5.40;;
12469;SDS011;36499;46.484;13.832;2023-09-08T00:54:35;6.03;;;5.13;;
12469;SDS011;36499;46.484;13.832;2023-09-08T00:57:03;7.70;;;5.50;;
12469;SDS011;36499;46.484;13.832;2023-09-08T00:59:32;5.50;;;5.00;;
12469;SDS011;36499;46.484;13.832;2023-09-08T01:02:03;5.90;;;5.30;;
12469;SDS011;36499;46.484;13.832;2023-09-08T01:04:31;5.70;;;5.07;;
12469;SDS011;36499;46.484;13.832;2023-09-08T01:06:58;5.87;;;5.27;;
12469;SDS011;36499;46.484;13.832;2023-09-08T01:09:28;6.10;;;5.23;;
12469;SDS011;36499;46.484;13.832;2023-09-08T01:11:55;5.30;;;4.53;;
12469;SDS011;36499;46.484;13.832;2023-09-08T01:14:27;6.00;;;5.13;;
12469;SDS011;36499;46.484;13.832;2023-09-08T01:16:55;5.80;;;5.20;;
12469;SDS011;36499;46.484;13.832;2023-09-08T01:19:23;5.50;;;5.00;;
12469;SDS011;36499;46.484;13.832;2023-09-08T01:21:53;5.77;;;5.17;;
12469;SDS011;36499;46.484;13.832;2023-09-08T01:27:44;7.03;;;4.93;;
12469;SDS011;36499;46.484;13.832;2023-09-08T01:30:14;6.27;;;5.20;;
12469;SDS011;36499;46.484;13.832;2023-09-08T01:32:43;5.90;;;5.10;;
12469;SDS011;36499;46.484;13.832;2023-09-08T01:35:12;6.10;;;5.50;;
12469;SDS011;36499;46.484;13.832;2023-09-08T01:37:40;5.10;;;4.60;;
12469;SDS011;36499;46.484;13.832;2023-09-08T01:40:10;7.30;;;5.10;;
12469;SDS011;36499;46.484;13.832;2023-09-08T01:42:37;11.83;;;5.50;;
12469;SDS011;36499;46.484;13.832;2023-09-08T01:45:06;6.07;;;5.20;;
12469;SDS011;36499;46.484;13.832;2023-09-08T01:47:34;8.03;;;5.10;;
12469;SDS011;36499;46.484;13.832;2023-09-08T01:50:01;7.53;;;5.67;;
12469;SDS011;36499;46.484;13.832;2023-09-08T01:52:29;6.00;;;5.40;;
12469;SDS011;36499;46.484;13.832;2023-09-08T01:54:56;8.33;;;5.47;;
12469;SDS011;36499;46.484;13.832;2023-09-08T01:57:24;6.03;;;5.43;;
12469;SDS011;36499;46.484;13.832;2023-09-08T01:59:51;7.37;;;5.37;;
12469;SDS011;36499;46.484;13.832;2023-09-08T02:02:18;8.27;;;5.30;;
12469;SDS011;36499;46.484;13.832;2023-09-08T02:04:46;7.50;;;5.27;;
12469;SDS011;36499;46.484;13.832;2023-09-08T02:07:13;7.60;;;5.60;;
12469;SDS011;36499;46.484;13.832;2023-09-08T02:09:40;7.23;;;5.20;;
12469;SDS011;36499;46.484;13.832;2023-09-08T02:12:08;9.23;;;5.00;;
12469;SDS011;36499;46.484;13.832;2023-09-08T02:14:36;5.40;;;4.90;;
12469;SDS011;36499;46.484;13.832;2023-09-08T02:17:03;5.83;;;5.23;;
12469;SDS011;36499;46.484;13.832;2023-09-08T02:19:31;5.73;;;4.67;;
12469;SDS011;36499;46.484;13.832;2023-09-08T02:21:58;5.47;;;4.97;;
12469;SDS011;36499;46.484;13.832;2023-09-08T02:24:25;9.07;;;5.13;;
12469;SDS011;36499;46.484;13.832;2023-09-08T02:26:52;5.20;;;4.70;;
12469;SDS011;36499;46.484;13.832;2023-09-08T02:29:20;5.20;;;4.70;;
12469;SDS011;36499;46.484;13.832;2023-09-08T02:31:49;5.03;;;4.43;;
12469;SDS011;36499;46.484;13.832;2023-09-08T02:34:16;7.73;;;4.97;;
12469;SDS011;36499;46.484;13.832;2023-09-08T02:36:43;7.93;;;5.07;;
12469;SDS011;36499;46.484;13.832;2023-09-08T02:39:12;5.73;;;4.90;;
12469;SDS011;36499;46.484;13.832;2023-09-08T02:41:40;5.73;;;4.73;;
12469;SDS011;36499;46.484;13.832;2023-09-08T02:44:07;6.60;;;4.80;;
12469;SDS011;36499;46.484;13.832;2023-09-08T02:46:34;8.00;;;4.63;;
12469;SDS011;36499;46.484;13.832;2023-09-08T02:49:02;5.10;;;4.60;;
12469;SDS011;36499;46.484;13.832;2023-09-08T02:51:29;9.97;;;8.60;;
12469;SDS011;36499;46.484;13.832;2023-09-08T02:53:56;9.07;;;7.47;;
12469;SDS011;36499;46.484;13.832;2023-09-08T02:56:23;8.60;;;7.20;;
12469;SDS011;36499;46.484;13.832;2023-09-08T02:58:50;5.80;;;4.73;;
12469;SDS011;36499;46.484;13.832;2023-09-08T03:01:17;5.97;;;4.83;;
12469;SDS011;36499;46.484;13.832;2023-09-08T03:03:45;5.37;;;4.30;;
12469;SDS011;36499;46.484;13.832;2023-09-08T03:06:15;5.13;;;4.50;;
12469;SDS011;36499;46.484;13.832;2023-09-08T03:08:45;6.00;;;4.70;;
12469;SDS011;36499;46.484;13.832;2023-09-08T03:11:12;4.77;;;4.27;;
12469;SDS011;36499;46.484;13.832;2023-09-08T03:13:39;5.77;;;4.57;;
12469;SDS011;36499;46.484;13.832;2023-09-08T03:16:07;6.00;;;4.70;;
12469;SDS011;36499;46.484;13.832;2023-09-08T03:18:36;6.77;;;5.00;;
12469;SDS011;36499;46.484;13.832;2023-09-08T03:21:04;5.23;;;4.60;;
12469;SDS011;36499;46.484;13.832;2023-09-08T03:23:37;6.97;;;4.63;;
12469;SDS011;36499;46.484;13.832;2023-09-08T03:26:04;7.57;;;4.70;;
12469;SDS011;36499;46.484;13.832;2023-09-08T03:28:32;6.63;;;5.53;;
12469;SDS011;36499;46.484;13.832;2023-09-08T03:31:01;7.07;;;5.30;;
12469;SDS011;36499;46.484;13.832;2023-09-08T03:33:29;7.53;;;5.60;;
12469;SDS011;36499;46.484;13.832;2023-09-08T03:35:56;7.23;;;5.43;;
12469;SDS011;36499;46.484;13.832;2023-09-08T03:38:23;8.27;;;4.90;;
12469;SDS011;36499;46.484;13.832;2023-09-08T03:40:52;6.33;;;5.63;;
12469;SDS011;36499;46.484;13.832;2023-09-08T03:43:19;5.53;;;4.73;;
12469;SDS011;36499;46.484;13.832;2023-09-08T03:45:46;5.10;;;4.60;;
12469;SDS011;36499;46.484;13.832;2023-09-08T03:48:13;5.07;;;4.57;;
12469;SDS011;36499;46.484;13.832;2023-09-08T03:50:40;8.17;;;5.17;;
12469;SDS011;36499;46.484;13.832;2023-09-08T03:53:10;6.73;;;5.00;;
12469;SDS011;36499;46.484;13.832;2023-09-08T03:55:37;6.20;;;4.67;;
12469;SDS011;36499;46.484;13.832;2023-09-08T03:58:06;7.93;;;4.97;;
12469;SDS011;36499;46.484;13.832;2023-09-08T04:00:33;7.43;;;5.47;;
12469;SDS011;36499;46.484;13.832;2023-09-08T04:03:02;8.17;;;5.40;;
12469;SDS011;36499;46.484;13.832;2023-09-08T04:05:29;6.27;;;5.30;;
12469;SDS011;36499;46.484;13.832;2023-09-08T04:07:56;9.40;;;5.50;;
12469;SDS011;36499;46.484;13.832;2023-09-08T04:10:23;9.70;;;5.40;;
12469;SDS011;36499;46.484;13.832;2023-09-08T04:12:50;5.77;;;4.63;;
12469;SDS011;36499;46.484;13.832;2023-09-08T04:15:19;5.07;;;4.60;;
12469;SDS011;36499;46.484;13.832;2023-09-08T04:17:46;6.10;;;4.87;;
12469;SDS011;36499;46.484;13.832;2023-09-08T04:20:13;6.13;;;5.53;;
12469;SDS011;36499;46.484;13.832;2023-09-08T04:22:41;6.80;;;5.17;;
12469;SDS011;36499;46.484;13.832;2023-09-08T04:25:09;6.50;;;4.73;;
12469;SDS011;36499;46.484;13.832;2023-09-08T04:27:36;5.00;;;4.50;;
12469;SDS011;36499;46.484;13.832;2023-09-08T04:30:03;8.93;;;4.57;;
12469;SDS011;36499;46.484;13.832;2023-09-08T04:32:33;7.53;;;4.93;;
12469;SDS011;36499;46.484;13.832;2023-09-08T04:35:02;7.10;;;4.57;;
12469;SDS011;36499;46.484;13.832;2023-09-08T04:37:30;5.63;;;4.57;;
12469;SDS011;36499;46.484;13.832;2023-09-08T04:39:57;5.57;;;4.60;;
12469;SDS011;36499;46.484;13.832;2023-09-08T04:42:24;5.27;;;4.77;;
12469;SDS011;36499;46.484;13.832;2023-09-08T04:44:51;6.17;;;5.00;;
12469;SDS011;36499;46.484;13.832;2023-09-08T04:47:18;5.70;;;5.17;;
12469;SDS011;36499;46.484;13.832;2023-09-08T04:49:47;5.90;;;4.50;;
12469;SDS011;36499;46.484;13.832;2023-09-08T04:52:14;5.20;;;4.70;;
12469;SDS011;36499;46.484;13.832;2023-09-08T04:54:41;6.97;;;5.30;;
12469;SDS011;36499;46.484;13.832;2023-09-08T04:57:08;9.67;;;5.30;;
12469;SDS011;36499;46.484;13.832;2023-09-08T04:59:35;5.77;;;5.13;;
12469;SDS011;36499;46.484;13.832;2023-09-08T05:02:04;6.67;;;4.63;;
12469;SDS011;36499;46.484;13.832;2023-09-08T05:04:31;5.30;;;4.67;;
12469;SDS011;36499;46.484;13.832;2023-09-08T05:06:59;5.00;;;4.50;;
12469;SDS011;36499;46.484;13.832;2023-09-08T05:09:26;5.97;;;4.93;;
12469;SDS011;36499;46.484;13.832;2023-09-08T05:11:53;6.47;;;5.00;;
12469;SDS011;36499;46.484;13.832;2023-09-08T05:14:20;8.83;;;5.50;;
12469;SDS011;36499;46.484;13.832;2023-09-08T05:16:49;5.10;;;4.60;;
12469;SDS011;36499;46.484;13.832;2023-09-08T05:19:21;6.37;;;4.83;;
12469;SDS011;36499;46.484;13.832;2023-09-08T05:21:49;5.03;;;4.43;;
12469;SDS011;36499;46.484;13.832;2023-09-08T05:24:19;7.43;;;5.07;;
12469;SDS011;36499;46.484;13.832;2023-09-08T05:26:46;6.13;;;4.83;;
12469;SDS011;36499;46.484;13.832;2023-09-08T05:29:13;10.13;;;7.17;;
12469;SDS011;36499;46.484;13.832;2023-09-08T05:31:40;12.77;;;8.83;;
12469;SDS011;36499;46.484;13.832;2023-09-08T05:34:08;8.03;;;6.67;;
12469;SDS011;36499;46.484;13.832;2023-09-08T05:36:35;6.10;;;5.50;;
12469;SDS011;36499;46.484;13.832;2023-09-08T05:39:03;8.87;;;5.37;;
12469;SDS011;36499;46.484;13.832;2023-09-08T05:41:32;7.00;;;5.57;;
12469;SDS011;36499;46.484;13.832;2023-09-08T05:43:59;6.03;;;4.93;;
12469;SDS011;36499;46.484;13.832;2023-09-08T05:46:26;6.90;;;4.63;;
12469;SDS011;36499;46.484;13.832;2023-09-08T05:48:54;8.93;;;5.40;;
12469;SDS011;36499;46.484;13.832;2023-09-08T05:51:21;7.50;;;5.10;;
12469;SDS011;36499;46.484;13.832;2023-09-08T05:53:48;7.80;;;5.10;;
12469;SDS011;36499;46.484;13.832;2023-09-08T05:56:15;6.80;;;5.30;;
12469;SDS011;36499;46.484;13.832;2023-09-08T05:58:46;5.33;;;4.80;;
12469;SDS011;36499;46.484;13.832;2023-09-08T06:01:13;7.97;;;5.60;;
12469;SDS011;36499;46.484;13.832;2023-09-08T06:03:42;11.57;;;7.57;;
12469;SDS011;36499;46.484;13.832;2023-09-08T06:06:09;9.37;;;5.57;;
12469;SDS011;36499;46.484;13.832;2023-09-08T06:08:36;6.47;;;5.30;;
12469;SDS011;36499;46.484;13.832;2023-09-08T06:11:03;7.73;;;5.80;;
12469;SDS011;36499;46.484;13.832;2023-09-08T06:13:30;6.50;;;5.13;;
12469;SDS011;36499;46.484;13.832;2023-09-08T06:15:58;8.33;;;5.60;;
12469;SDS011;36499;46.484;13.832;2023-09-08T06:18:27;10.37;;;5.47;;
12469;SDS011;36499;46.484;13.832;2023-09-08T06:20:56;9.23;;;4.70;;
12469;SDS011;36499;46.484;13.832;2023-09-08T06:23:23;5.53;;;4.80;;
12469;SDS011;36499;46.484;13.832;2023-09-08T06:25:50;8.43;;;4.97;;
12469;SDS011;36499;46.484;13.832;2023-09-08T06:28:24;6.93;;;4.70;;
12469;SDS011;36499;46.484;13.832;2023-09-08T06:30:51;5.23;;;4.73;;
12469;SDS011;36499;46.484;13.832;2023-09-08T06:33:20;6.13;;;4.90;;
12469;SDS011;36499;46.484;13.832;2023-09-08T06:35:48;5.40;;;4.90;;
12469;SDS011;36499;46.484;13.832;2023-09-08T06:38:15;5.00;;;4.50;;
12469;SDS011;36499;46.484;13.832;2023-09-08T06:40:42;5.43;;;4.83;;
12469;SDS011;36499;46.484;13.832;2023-09-08T06:43:09;8.43;;;5.00;;
12469;SDS011;36499;46.484;13.832;2023-09-08T06:45:37;5.40;;;4.90;;
12469;SDS011;36499;46.484;13.832;2023-09-08T06:48:05;6.50;;;5.03;;
12469;SDS011;36499;46.484;13.832;2023-09-08T06:50:34;10.87;;;5.97;;
12469;SDS011;36499;46.484;13.832;2023-09-08T06:53:01;6.43;;;5.10;;
12469;SDS011;36499;46.484;13.832;2023-09-08T06:55:28;5.53;;;4.60;;
12469;SDS011;36499;46.484;13.832;2023-09-08T06:57:56;4.57;;;4.17;;
12469;SDS011;36499;46.484;13.832;2023-09-08T07:00:23;12.47;;;6.67;;
12469;SDS011;36499;46.484;13.832;2023-09-08T07:02:50;8.67;;;5.00;;
12469;SDS011;36499;46.484;13.832;2023-09-08T07:05:17;5.97;;;4.70;;
12469;SDS011;36499;46.484;13.832;2023-09-08T07:07:45;5.17;;;4.40;;
12469;SDS011;36499;46.484;13.832;2023-09-08T07:10:12;5.27;;;4.27;;
12469;SDS011;36499;46.484;13.832;2023-09-08T07:12:39;6.73;;;4.63;;
12469;SDS011;36499;46.484;13.832;2023-09-08T07:15:07;4.80;;;4.30;;
12469;SDS011;36499;46.484;13.832;2023-09-08T07:17:35;5.23;;;4.73;;
12469;SDS011;36499;46.484;13.832;2023-09-08T07:20:03;5.60;;;4.70;;
12469;SDS011;36499;46.484;13.832;2023-09-08T07:22:31;6.70;;;4.23;;
12469;SDS011;36499;46.484;13.832;2023-09-08T07:25:00;6.50;;;4.23;;
12469;SDS011;36499;46.484;13.832;2023-09-08T07:27:27;7.73;;;4.30;;
12469;SDS011;36499;46.484;13.832;2023-09-08T07:29:54;6.10;;;4.57;;
12469;SDS011;36499;46.484;13.832;2023-09-08T07:32:21;8.60;;;4.47;;
12469;SDS011;36499;46.484;13.832;2023-09-08T07:34:49;4.70;;;4.20;;
12469;SDS011;36499;46.484;13.832;2023-09-08T07:37:20;5.40;;;4.63;;
12469;SDS011;36499;46.484;13.832;2023-09-08T07:39:47;5.37;;;4.70;;
12469;SDS011;36499;46.484;13.832;2023-09-08T07:42:16;5.00;;;4.47;;
12469;SDS011;36499;46.484;13.832;2023-09-08T07:44:44;5.37;;;4.30;;
12469;SDS011;36499;46.484;13.832;2023-09-08T07:47:11;4.90;;;4.40;;
12469;SDS011;36499;46.484;13.832;2023-09-08T07:49:38;5.13;;;4.30;;
12469;SDS011;36499;46.484;13.832;2023-09-08T07:52:11;6.93;;;4.67;;
12469;SDS011;36499;46.484;13.832;2023-09-08T07:54:38;6.67;;;4.60;;
12469;SDS011;36499;46.484;13.832;2023-09-08T07:57:05;5.27;;;4.40;;
12469;SDS011;36499;46.484;13.832;2023-09-08T07:59:33;6.70;;;4.60;;
12469;SDS011;36499;46.484;13.832;2023-09-08T08:02:00;5.00;;;4.50;;
12469;SDS011;36499;46.484;13.832;2023-09-08T08:04:28;5.10;;;4.60;;
12469;SDS011;36499;46.484;13.832;2023-09-08T08:06:55;5.13;;;4.17;;
12469;SDS011;36499;46.484;13.832;2023-09-08T08:09:22;6.73;;;4.40;;
12469;SDS011;36499;46.484;13.832;2023-09-08T08:11:49;7.97;;;4.63;;
12469;SDS011;36499;46.484;13.832;2023-09-08T08:14:16;5.07;;;4.37;;
12469;SDS011;36499;46.484;13.832;2023-09-08T08:16:44;7.43;;;4.33;;
12469;SDS011;36499;46.484;13.832;2023-09-08T08:19:11;5.37;;;4.37;;
12469;SDS011;36499;46.484;13.832;2023-09-08T08:21:38;5.23;;;4.50;;
12469;SDS011;36499;46.484;13.832;2023-09-08T08:24:07;6.23;;;4.10;;
12469;SDS011;36499;46.484;13.832;2023-09-08T08:26:35;6.70;;;4.70;;
12469;SDS011;36499;46.484;13.832;2023-09-08T08:29:02;5.30;;;4.60;;
12469;SDS011;36499;46.484;13.832;2023-09-08T08:31:29;5.60;;;4.43;;
12469;SDS011;36499;46.484;13.832;2023-09-08T08:33:59;8.00;;;4.20;;
12469;SDS011;36499;46.484;13.832;2023-09-08T08:36:26;4.70;;;4.30;;
12469;SDS011;36499;46.484;13.832;2023-09-08T08:38:53;5.07;;;4.23;;
12469;SDS011;36499;46.484;13.832;2023-09-08T08:41:21;7.13;;;4.47;;
12469;SDS011;36499;46.484;13.832;2023-09-08T08:43:48;4.60;;;4.13;;
12469;SDS011;36499;46.484;13.832;2023-09-08T08:46:18;7.40;;;4.50;;
12469;SDS011;36499;46.484;13.832;2023-09-08T08:48:48;5.47;;;4.80;;
12469;SDS011;36499;46.484;13.832;2023-09-08T08:51:20;6.07;;;4.47;;
12469;SDS011;36499;46.484;13.832;2023-09-08T08:53:50;7.83;;;4.20;;
12469;SDS011;36499;46.484;13.832;2023-09-08T08:56:18;4.60;;;4.20;;
12469;SDS011;36499;46.484;13.832;2023-09-08T08:58:46;5.20;;;4.70;;
12469;SDS011;36499;46.484;13.832;2023-09-08T09:01:15;6.43;;;4.60;;
12469;SDS011;36499;46.484;13.832;2023-09-08T09:03:44;5.90;;;4.67;;
12469;SDS011;36499;46.484;13.832;2023-09-08T09:06:14;5.20;;;4.70;;
12469;SDS011;36499;46.484;13.832;2023-09-08T09:08:44;5.93;;;4.37;;
12469;SDS011;36499;46.484;13.832;2023-09-08T09:11:12;5.20;;;4.60;;
12469;SDS011;36499;46.484;13.832;2023-09-08T09:13:39;6.40;;;4.60;;
12469;SDS011;36499;46.484;13.832;2023-09-08T09:16:06;5.13;;;4.60;;
12469;SDS011;36499;46.484;13.832;2023-09-08T09:18:40;5.90;;;4.70;;
12469;SDS011;36499;46.484;13.832;2023-09-08T09:21:21;6.23;;;4.53;;
12469;SDS011;36499;46.484;13.832;2023-09-08T09:23:50;4.60;;;4.10;;
12469;SDS011;36499;46.484;13.832;2023-09-08T09:26:23;5.40;;;4.30;;
12469;SDS011;36499;46.484;13.832;2023-09-08T09:28:52;6.43;;;4.20;;
12469;SDS011;36499;46.484;13.832;2023-09-08T09:31:22;9.47;;;4.90;;
12469;SDS011;36499;46.484;13.832;2023-09-08T09:34:00;5.67;;;4.30;;
12469;SDS011;36499;46.484;13.832;2023-09-08T09:36:31;5.27;;;4.63;;
12469;SDS011;36499;46.484;13.832;2023-09-08T09:39:00;9.80;;;4.93;;
12469;SDS011;36499;46.484;13.832;2023-09-08T09:41:28;4.87;;;4.20;;
12469;SDS011;36499;46.484;13.832;2023-09-08T09:43:55;8.07;;;4.37;;
12469;SDS011;36499;46.484;13.832;2023-09-08T09:46:23;6.20;;;4.17;;
12469;SDS011;36499;46.484;13.832;2023-09-08T09:48:50;5.87;;;4.20;;
12469;SDS011;36499;46.484;13.832;2023-09-08T09:51:21;5.33;;;4.20;;
12469;SDS011;36499;46.484;13.832;2023-09-08T09:53:49;7.10;;;4.27;;
12469;SDS011;36499;46.484;13.832;2023-09-08T09:56:18;7.37;;;4.80;;
12469;SDS011;36499;46.484;13.832;2023-09-08T09:58:48;5.27;;;4.73;;
12469;SDS011;36499;46.484;13.832;2023-09-08T10:01:19;6.50;;;4.43;;
12469;SDS011;36499;46.484;13.832;2023-09-08T10:03:48;8.43;;;4.00;;
12469;SDS011;36499;46.484;13.832;2023-09-08T10:06:17;6.63;;;4.13;;
12469;SDS011;36499;46.484;13.832;2023-09-08T10:08:46;4.80;;;4.30;;
12469;SDS011;36499;46.484;13.832;2023-09-08T10:11:14;7.20;;;3.93;;
12469;SDS011;36499;46.484;13.832;2023-09-08T10:13:49;5.93;;;4.17;;
12469;SDS011;36499;46.484;13.832;2023-09-08T10:16:23;6.13;;;4.17;;
12469;SDS011;36499;46.484;13.832;2023-09-08T10:18:53;7.97;;;4.10;;
12469;SDS011;36499;46.484;13.832;2023-09-08T10:21:24;7.00;;;5.23;;
12469;SDS011;36499;46.484;13.832;2023-09-08T10:23:57;8.33;;;4.30;;
12469;SDS011;36499;46.484;13.832;2023-09-08T10:26:38;5.73;;;3.90;;
12469;SDS011;36499;46.484;13.832;2023-09-08T10:29:11;9.73;;;4.50;;
12469;SDS011;36499;46.484;13.832;2023-09-08T10:31:39;7.73;;;3.93;;
12469;SDS011;36499;46.484;13.832;2023-09-08T10:34:08;6.93;;;4.83;;
12469;SDS011;36499;46.484;13.832;2023-09-08T10:36:35;6.03;;;4.43;;
12469;SDS011;36499;46.484;13.832;2023-09-08T10:45:00;10.80;;;4.57;;
12469;SDS011;36499;46.484;13.832;2023-09-08T10:47:41;7.27;;;4.30;;
12469;SDS011;36499;46.484;13.832;2023-09-08T10:50:26;7.13;;;4.17;;
12469;SDS011;36499;46.484;13.832;2023-09-08T10:53:04;4.47;;;3.90;;
12469;SDS011;36499;46.484;13.832;2023-09-08T10:55:39;8.33;;;3.90;;
12469;SDS011;36499;46.484;13.832;2023-09-08T10:58:18;11.33;;;4.30;;
12469;SDS011;36499;46.484;13.832;2023-09-08T11:00:54;5.33;;;4.23;;
12469;SDS011;36499;46.484;13.832;2023-09-08T11:03:27;6.70;;;4.50;;
12469;SDS011;36499;46.484;13.832;2023-09-08T11:06:09;5.53;;;3.87;;
12469;SDS011;36499;46.484;13.832;2023-09-08T11:08:43;5.13;;;4.07;;
12469;SDS011;36499;46.484;13.832;2023-09-08T11:11:11;6.17;;;4.20;;
12469;SDS011;36499;46.484;13.832;2023-09-08T11:13:41;5.13;;;4.07;;
12469;SDS011;36499;46.484;13.832;2023-09-08T11:16:10;6.77;;;3.57;;
12469;SDS011;36499;46.484;13.832;2023-09-08T11:18:39;7.07;;;3.90;;
12469;SDS011;36499;46.484;13.832;2023-09-08T11:21:07;8.10;;;4.27;;
12469;SDS011;36499;46.484;13.832;2023-09-08T11:23:36;4.67;;;4.20;;
12469;SDS011;36499;46.484;13.832;2023-09-08T11:26:04;8.17;;;4.00;;
12469;SDS011;36499;46.484;13.832;2023-09-08T11:28:34;5.73;;;3.80;;
12469;SDS011;36499;46.484;13.832;2023-09-08T11:31:03;5.60;;;3.77;;
12469;SDS011;36499;46.484;13.832;2023-09-08T11:33:33;4.80;;;3.87;;
12469;SDS011;36499;46.484;13.832;2023-09-08T11:36:10;6.67;;;3.80;;
12469;SDS011;36499;46.484;13.832;2023-09-08T11:38:41;11.63;;;4.00;;
12469;SDS011;36499;46.484;13.832;2023-09-08T11:41:10;8.23;;;3.70;;
12469;SDS011;36499;46.484;13.832;2023-09-08T11:43:37;8.00;;;4.10;;
12469;SDS011;36499;46.484;13.832;2023-09-08T11:46:06;10.67;;;4.00;;
12469;SDS011;36499;46.484;13.832;2023-09-08T11:48:35;7.57;;;3.90;;
12469;SDS011;36499;46.484;13.832;2023-09-08T11:51:03;6.73;;;4.07;;
12469;SDS011;36499;46.484;13.832;2023-09-08T11:53:33;4.77;;;4.03;;
12469;SDS011;36499;46.484;13.832;2023-09-08T11:56:03;6.37;;;3.93;;
12469;SDS011;36499;46.484;13.832;2023-09-08T11:58:31;4.60;;;4.20;;
12469;SDS011;36499;46.484;13.832;2023-09-08T12:00:59;5.40;;;3.90;;
12469;SDS011;36499;46.484;13.832;2023-09-08T12:03:29;7.60;;;4.00;;
12469;SDS011;36499;46.484;13.832;2023-09-08T12:05:56;10.53;;;3.93;;
12469;SDS011;36499;46.484;13.832;2023-09-08T12:08:24;6.30;;;3.70;;
12469;SDS011;36499;46.484;13.832;2023-09-08T12:10:53;5.77;;;3.70;;
12469;SDS011;36499;46.484;13.832;2023-09-08T12:13:20;4.30;;;3.90;;
12469;SDS011;36499;46.484;13.832;2023-09-08T12:15:48;9.77;;;4.10;;
12469;SDS011;36499;46.484;13.832;2023-09-08T12:18:16;4.37;;;3.90;;
12469;SDS011;36499;46.484;13.832;2023-09-08T12:20:44;4.17;;;3.63;;
12469;SDS011;36499;46.484;13.832;2023-09-08T12:23:18;7.33;;;3.93;;
12469;SDS011;36499;46.484;13.832;2023-09-08T12:25:48;5.73;;;3.60;;
12469;SDS011;36499;46.484;13.832;2023-09-08T12:28:17;5.27;;;3.90;;
12469;SDS011;36499;46.484;13.832;2023-09-08T12:30:46;5.03;;;3.60;;
12469;SDS011;36499;46.484;13.832;2023-09-08T12:33:15;6.40;;;3.70;;
12469;SDS011;36499;46.484;13.832;2023-09-08T12:35:46;4.73;;;3.77;;
12469;SDS011;36499;46.484;13.832;2023-09-08T12:38:16;5.67;;;4.37;;
12469;SDS011;36499;46.484;13.832;2023-09-08T12:40:43;5.50;;;3.73;;
12469;SDS011;36499;46.484;13.832;2023-09-08T12:43:10;5.67;;;3.90;;
12469;SDS011;36499;46.484;13.832;2023-09-08T12:45:37;5.30;;;4.07;;
12469;SDS011;36499;46.484;13.832;2023-09-08T12:48:04;6.30;;;4.03;;
12469;SDS011;36499;46.484;13.832;2023-09-08T12:50:32;5.70;;;4.00;;
12469;SDS011;36499;46.484;13.832;2023-09-08T12:53:01;8.50;;;4.07;;
12469;SDS011;36499;46.484;13.832;2023-09-08T12:55:28;4.60;;;4.20;;
12469;SDS011;36499;46.484;13.832;2023-09-08T12:57:55;5.93;;;3.93;;
12469;SDS011;36499;46.484;13.832;2023-09-08T13:00:22;4.37;;;3.83;;
12469;SDS011;36499;46.484;13.832;2023-09-08T13:02:50;7.90;;;4.00;;
12469;SDS011;36499;46.484;13.832;2023-09-08T13:05:17;6.83;;;3.77;;
12469;SDS011;36499;46.484;13.832;2023-09-08T13:07:44;5.67;;;4.20;;
12469;SDS011;36499;46.484;13.832;2023-09-08T13:10:13;6.13;;;4.40;;
12469;SDS011;36499;46.484;13.832;2023-09-08T13:12:40;6.60;;;4.40;;
12469;SDS011;36499;46.484;13.832;2023-09-08T13:15:08;12.87;;;5.07;;
12469;SDS011;36499;46.484;13.832;2023-09-08T13:17:35;16.83;;;4.83;;
12469;SDS011;36499;46.484;13.832;2023-09-08T13:20:03;8.00;;;4.20;;
12469;SDS011;36499;46.484;13.832;2023-09-08T13:22:31;12.40;;;5.17;;
12469;SDS011;36499;46.484;13.832;2023-09-08T13:24:59;12.00;;;5.83;;
12469;SDS011;36499;46.484;13.832;2023-09-08T13:27:27;11.13;;;6.00;;
12469;SDS011;36499;46.484;13.832;2023-09-08T13:29:54;12.90;;;5.40;;
12469;SDS011;36499;46.484;13.832;2023-09-08T13:32:35;18.40;;;6.23;;
12469;SDS011;36499;46.484;13.832;2023-09-08T13:35:02;5.33;;;3.70;;
12469;SDS011;36499;46.484;13.832;2023-09-08T13:37:30;7.63;;;3.90;;
12469;SDS011;36499;46.484;13.832;2023-09-08T13:39:59;5.23;;;3.90;;
12469;SDS011;36499;46.484;13.832;2023-09-08T13:42:28;4.93;;;4.43;;
12469;SDS011;36499;46.484;13.832;2023-09-08T13:44:55;7.83;;;3.70;;
12469;SDS011;36499;46.484;13.832;2023-09-08T13:47:22;4.80;;;3.83;;
12469;SDS011;36499;46.484;13.832;2023-09-08T13:49:49;5.17;;;4.07;;
12469;SDS011;36499;46.484;13.832;2023-09-08T13:52:16;5.13;;;4.03;;
12469;SDS011;36499;46.484;13.832;2023-09-08T13:54:43;5.70;;;4.20;;
12469;SDS011;36499;46.484;13.832;2023-09-08T13:57:10;7.83;;;4.37;;
12469;SDS011;36499;46.484;13.832;2023-09-08T13:59:38;4.80;;;4.00;;
12469;SDS011;36499;46.484;13.832;2023-09-08T14:02:06;4.50;;;4.10;;
12469;SDS011;36499;46.484;13.832;2023-09-08T14:04:33;8.70;;;3.97;;
12469;SDS011;36499;46.484;13.832;2023-09-08T14:07:00;4.57;;;3.73;;
12469;SDS011;36499;46.484;13.832;2023-09-08T14:09:28;6.87;;;3.77;;
12469;SDS011;36499;46.484;13.832;2023-09-08T14:11:55;6.23;;;4.43;;
12469;SDS011;36499;46.484;13.832;2023-09-08T14:14:22;5.47;;;4.00;;
12469;SDS011;36499;46.484;13.832;2023-09-08T14:16:51;6.27;;;4.10;;
12469;SDS011;36499;46.484;13.832;2023-09-08T14:19:18;8.90;;;3.93;;
12469;SDS011;36499;46.484;13.832;2023-09-08T14:21:45;5.33;;;4.27;;
12469;SDS011;36499;46.484;13.832;2023-09-08T14:24:12;6.73;;;4.50;;
12469;SDS011;36499;46.484;13.832;2023-09-08T14:26:39;6.60;;;4.00;;
12469;SDS011;36499;46.484;13.832;2023-09-08T14:29:06;6.17;;;4.47;;
12469;SDS011;36499;46.484;13.832;2023-09-08T14:31:33;6.03;;;4.37;;
12469;SDS011;36499;46.484;13.832;2023-09-08T14:34:01;6.47;;;4.30;;
12469;SDS011;36499;46.484;13.832;2023-09-08T14:36:29;5.27;;;4.50;;
12469;SDS011;36499;46.484;13.832;2023-09-08T14:38:56;9.43;;;4.23;;
12469;SDS011;36499;46.484;13.832;2023-09-08T14:41:23;4.53;;;4.10;;
12469;SDS011;36499;46.484;13.832;2023-09-08T14:43:50;4.97;;;4.33;;
12469;SDS011;36499;46.484;13.832;2023-09-08T14:46:17;6.37;;;3.80;;
12469;SDS011;36499;46.484;13.832;2023-09-08T14:48:45;9.10;;;4.93;;